sensor_id;sensor_type;location;lat;lon;timestamp;P1;durP1;ratioP1;P2;durP2;ratioP2
25153;SDS011;47555;51.038;6.280;2023-07-20T00:01:13;5.85;;;3.13;;
25153;SDS011;47555;51.038;6.280;2023-07-20T00:03:39;4.50;;;2.90;;
25153;SDS011;47555;51.038;6.280;2023-07-20T00:06:05;4.47;;;2.80;;
25153;SDS011;47555;51.038;6.280;2023-07-20T00:08:31;5.05;;;3.10;;
25153;SDS011;47555;51.038;6.280;2023-07-20T00:11:00;3.28;;;2.92;;
25153;SDS011;47555;51.038;6.280;2023-07-20T00:13:26;4.80;;;2.97;;
25153;SDS011;47555;51.038;6.280;2023-07-20T00:15:52;4.05;;;2.95;;
25153;SDS011;47555;51.038;6.280;2023-07-20T00:18:18;6.80;;;3.15;;
25153;SDS011;47555;51.038;6.280;2023-07-20T00:20:46;4.30;;;2.70;;
25153;SDS011;47555;51.038;6.280;2023-07-20T00:23:12;3.15;;;2.50;;
25153;SDS011;47555;51.038;6.280;2023-07-20T00:25:39;4.18;;;2.80;;
25153;SDS011;47555;51.038;6.280;2023-07-20T00:28:05;4.85;;;2.60;;
25153;SDS011;47555;51.038;6.280;2023-07-20T00:30:31;3.90;;;2.38;;
25153;SDS011;47555;51.038;6.280;2023-07-20T00:32:57;3.65;;;2.55;;
25153;SDS011;47555;51.038;6.280;2023-07-20T00:35:22;3.65;;;2.67;;
25153;SDS011;47555;51.038;6.280;2023-07-20T00:37:48;8.00;;;3.72;;
25153;SDS011;47555;51.038;6.280;2023-07-20T00:40:14;5.95;;;3.63;;
25153;SDS011;47555;51.038;6.280;2023-07-20T00:42:42;4.38;;;3.58;;
25153;SDS011;47555;51.038;6.280;2023-07-20T00:45:08;5.15;;;3.70;;
25153;SDS011;47555;51.038;6.280;2023-07-20T00:47:34;3.83;;;2.70;;
25153;SDS011;47555;51.038;6.280;2023-07-20T00:50:02;3.85;;;2.53;;
25153;SDS011;47555;51.038;6.280;2023-07-20T00:52:28;3.63;;;2.80;;
25153;SDS011;47555;51.038;6.280;2023-07-20T00:54:54;4.40;;;2.58;;
25153;SDS011;47555;51.038;6.280;2023-07-20T00:57:21;6.35;;;3.05;;
25153;SDS011;47555;51.038;6.280;2023-07-20T00:59:48;3.33;;;2.70;;
25153;SDS011;47555;51.038;6.280;2023-07-20T01:02:14;3.72;;;2.90;;
25153;SDS011;47555;51.038;6.280;2023-07-20T01:04:40;3.90;;;2.75;;
25153;SDS011;47555;51.038;6.280;2023-07-20T01:07:10;6.25;;;3.10;;
25153;SDS011;47555;51.038;6.280;2023-07-20T01:09:42;5.07;;;3.00;;
25153;SDS011;47555;51.038;6.280;2023-07-20T01:12:13;5.20;;;3.10;;
25153;SDS011;47555;51.038;6.280;2023-07-20T01:14:44;6.07;;;3.28;;
25153;SDS011;47555;51.038;6.280;2023-07-20T01:17:10;4.18;;;3.10;;
25153;SDS011;47555;51.038;6.280;2023-07-20T01:19:37;6.45;;;3.30;;
25153;SDS011;47555;51.038;6.280;2023-07-20T01:22:09;4.50;;;3.20;;
25153;SDS011;47555;51.038;6.280;2023-07-20T01:27:25;4.18;;;3.20;;
25153;SDS011;47555;51.038;6.280;2023-07-20T01:30:03;4.72;;;2.75;;
25153;SDS011;47555;51.038;6.280;2023-07-20T01:32:34;6.47;;;4.13;;
25153;SDS011;47555;51.038;6.280;2023-07-20T01:35:00;7.18;;;4.20;;
25153;SDS011;47555;51.038;6.280;2023-07-20T01:37:27;6.45;;;3.47;;
25153;SDS011;47555;51.038;6.280;2023-07-20T01:39:54;4.57;;;3.25;;
25153;SDS011;47555;51.038;6.280;2023-07-20T01:42:21;3.90;;;3.47;;
25153;SDS011;47555;51.038;6.280;2023-07-20T01:44:51;5.15;;;3.50;;
25153;SDS011;47555;51.038;6.280;2023-07-20T01:47:18;7.93;;;4.50;;
25153;SDS011;47555;51.038;6.280;2023-07-20T01:49:44;7.85;;;4.40;;
25153;SDS011;47555;51.038;6.280;2023-07-20T01:52:10;6.47;;;4.13;;
25153;SDS011;47555;51.038;6.280;2023-07-20T01:54:36;5.30;;;3.83;;
25153;SDS011;47555;51.038;6.280;2023-07-20T01:57:02;5.90;;;4.35;;
25153;SDS011;47555;51.038;6.280;2023-07-20T01:59:29;5.82;;;4.35;;
25153;SDS011;47555;51.038;6.280;2023-07-20T02:01:55;7.45;;;4.80;;
25153;SDS011;47555;51.038;6.280;2023-07-20T02:04:21;6.82;;;4.13;;
25153;SDS011;47555;51.038;6.280;2023-07-20T02:06:47;7.93;;;4.65;;
25153;SDS011;47555;51.038;6.280;2023-07-20T02:09:12;8.55;;;4.60;;
25153;SDS011;47555;51.038;6.280;2023-07-20T02:11:39;7.82;;;4.07;;
25153;SDS011;47555;51.038;6.280;2023-07-20T02:14:05;7.25;;;3.97;;
25153;SDS011;47555;51.038;6.280;2023-07-20T02:16:30;6.38;;;4.35;;
25153;SDS011;47555;51.038;6.280;2023-07-20T02:18:57;8.27;;;4.88;;
25153;SDS011;47555;51.038;6.280;2023-07-20T02:21:23;11.70;;;4.75;;
25153;SDS011;47555;51.038;6.280;2023-07-20T02:23:49;8.82;;;4.28;;
25153;SDS011;47555;51.038;6.280;2023-07-20T02:26:15;7.25;;;4.78;;
25153;SDS011;47555;51.038;6.280;2023-07-20T02:28:41;8.40;;;4.30;;
25153;SDS011;47555;51.038;6.280;2023-07-20T02:31:07;7.18;;;3.80;;
25153;SDS011;47555;51.038;6.280;2023-07-20T02:33:33;6.22;;;3.67;;
25153;SDS011;47555;51.038;6.280;2023-07-20T02:35:59;7.57;;;4.78;;
25153;SDS011;47555;51.038;6.280;2023-07-20T02:38:25;6.80;;;4.40;;
25153;SDS011;47555;51.038;6.280;2023-07-20T02:40:51;5.28;;;3.17;;
25153;SDS011;47555;51.038;6.280;2023-07-20T02:43:17;5.63;;;3.38;;
25153;SDS011;47555;51.038;6.280;2023-07-20T02:45:43;7.55;;;3.35;;
25153;SDS011;47555;51.038;6.280;2023-07-20T02:48:09;6.72;;;3.10;;
25153;SDS011;47555;51.038;6.280;2023-07-20T02:50:35;6.43;;;3.67;;
25153;SDS011;47555;51.038;6.280;2023-07-20T02:53:01;6.38;;;4.03;;
25153;SDS011;47555;51.038;6.280;2023-07-20T02:55:27;7.80;;;3.97;;
25153;SDS011;47555;51.038;6.280;2023-07-20T02:57:53;5.20;;;3.40;;
25153;SDS011;47555;51.038;6.280;2023-07-20T03:00:19;6.80;;;3.40;;
25153;SDS011;47555;51.038;6.280;2023-07-20T03:02:48;6.97;;;2.90;;
25153;SDS011;47555;51.038;6.280;2023-07-20T03:05:14;5.45;;;3.65;;
25153;SDS011;47555;51.038;6.280;2023-07-20T03:07:41;4.82;;;3.05;;
25153;SDS011;47555;51.038;6.280;2023-07-20T03:10:08;6.78;;;3.60;;
25153;SDS011;47555;51.038;6.280;2023-07-20T03:12:35;6.45;;;4.20;;
25153;SDS011;47555;51.038;6.280;2023-07-20T03:15:01;5.55;;;3.10;;
25153;SDS011;47555;51.038;6.280;2023-07-20T03:17:27;4.65;;;3.28;;
25153;SDS011;47555;51.038;6.280;2023-07-20T03:19:53;7.15;;;3.67;;
25153;SDS011;47555;51.038;6.280;2023-07-20T03:22:19;4.45;;;3.40;;
25153;SDS011;47555;51.038;6.280;2023-07-20T03:24:47;8.25;;;3.83;;
25153;SDS011;47555;51.038;6.280;2023-07-20T03:27:13;5.68;;;3.78;;
25153;SDS011;47555;51.038;6.280;2023-07-20T03:29:39;6.85;;;3.30;;
25153;SDS011;47555;51.038;6.280;2023-07-20T03:32:05;8.23;;;3.83;;
25153;SDS011;47555;51.038;6.280;2023-07-20T03:34:31;6.57;;;3.60;;
25153;SDS011;47555;51.038;6.280;2023-07-20T03:36:57;5.78;;;3.63;;
25153;SDS011;47555;51.038;6.280;2023-07-20T03:39:24;7.28;;;4.20;;
25153;SDS011;47555;51.038;6.280;2023-07-20T03:41:50;8.85;;;3.60;;
25153;SDS011;47555;51.038;6.280;2023-07-20T03:44:16;7.32;;;3.70;;
25153;SDS011;47555;51.038;6.280;2023-07-20T03:46:42;8.95;;;3.80;;
25153;SDS011;47555;51.038;6.280;2023-07-20T03:49:08;5.30;;;3.70;;
25153;SDS011;47555;51.038;6.280;2023-07-20T03:51:35;10.57;;;3.55;;
25153;SDS011;47555;51.038;6.280;2023-07-20T03:54:01;7.75;;;4.05;;
25153;SDS011;47555;51.038;6.280;2023-07-20T03:56:27;5.65;;;3.28;;
25153;SDS011;47555;51.038;6.280;2023-07-20T03:58:53;7.38;;;3.90;;
25153;SDS011;47555;51.038;6.280;2023-07-20T04:01:19;7.95;;;4.13;;
25153;SDS011;47555;51.038;6.280;2023-07-20T04:03:45;6.35;;;3.70;;
25153;SDS011;47555;51.038;6.280;2023-07-20T04:06:11;8.88;;;4.30;;
25153;SDS011;47555;51.038;6.280;2023-07-20T04:08:42;8.57;;;4.47;;
25153;SDS011;47555;51.038;6.280;2023-07-20T04:11:08;7.57;;;4.03;;
25153;SDS011;47555;51.038;6.280;2023-07-20T04:13:34;6.93;;;3.95;;
25153;SDS011;47555;51.038;6.280;2023-07-20T04:16:02;10.20;;;4.47;;
25153;SDS011;47555;51.038;6.280;2023-07-20T04:18:28;8.38;;;4.55;;
25153;SDS011;47555;51.038;6.280;2023-07-20T04:20:54;9.13;;;4.00;;
25153;SDS011;47555;51.038;6.280;2023-07-20T04:23:19;7.00;;;4.45;;
25153;SDS011;47555;51.038;6.280;2023-07-20T04:25:45;7.50;;;4.43;;
25153;SDS011;47555;51.038;6.280;2023-07-20T04:28:12;10.43;;;4.25;;
25153;SDS011;47555;51.038;6.280;2023-07-20T04:30:38;8.77;;;5.32;;
25153;SDS011;47555;51.038;6.280;2023-07-20T04:33:08;11.75;;;4.78;;
25153;SDS011;47555;51.038;6.280;2023-07-20T04:36:07;7.43;;;4.55;;
25153;SDS011;47555;51.038;6.280;2023-07-20T04:40:52;8.52;;;4.38;;
25153;SDS011;47555;51.038;6.280;2023-07-20T04:43:18;11.20;;;4.93;;
25153;SDS011;47555;51.038;6.280;2023-07-20T04:45:44;10.68;;;5.40;;
25153;SDS011;47555;51.038;6.280;2023-07-20T04:48:10;11.50;;;5.65;;
25153;SDS011;47555;51.038;6.280;2023-07-20T04:50:37;8.93;;;4.60;;
25153;SDS011;47555;51.038;6.280;2023-07-20T04:53:03;9.43;;;5.07;;
25153;SDS011;47555;51.038;6.280;2023-07-20T04:55:29;10.80;;;5.43;;
25153;SDS011;47555;51.038;6.280;2023-07-20T04:57:55;12.70;;;6.65;;
25153;SDS011;47555;51.038;6.280;2023-07-20T05:00:21;9.10;;;5.65;;
25153;SDS011;47555;51.038;6.280;2023-07-20T05:02:47;9.73;;;5.78;;
25153;SDS011;47555;51.038;6.280;2023-07-20T05:05:16;15.93;;;6.85;;
25153;SDS011;47555;51.038;6.280;2023-07-20T05:07:42;14.48;;;7.82;;
25153;SDS011;47555;51.038;6.280;2023-07-20T05:10:08;12.27;;;6.32;;
25153;SDS011;47555;51.038;6.280;2023-07-20T05:12:34;12.82;;;7.47;;
25153;SDS011;47555;51.038;6.280;2023-07-20T05:15:00;10.38;;;6.47;;
25153;SDS011;47555;51.038;6.280;2023-07-20T05:17:26;12.93;;;7.82;;
25153;SDS011;47555;51.038;6.280;2023-07-20T05:19:52;12.70;;;7.85;;
25153;SDS011;47555;51.038;6.280;2023-07-20T05:22:18;15.93;;;8.48;;
25153;SDS011;47555;51.038;6.280;2023-07-20T05:24:44;15.77;;;7.55;;
25153;SDS011;47555;51.038;6.280;2023-07-20T05:27:10;10.98;;;7.18;;
25153;SDS011;47555;51.038;6.280;2023-07-20T05:29:37;13.60;;;8.07;;
25153;SDS011;47555;51.038;6.280;2023-07-20T05:32:03;13.20;;;7.65;;
25153;SDS011;47555;51.038;6.280;2023-07-20T05:34:32;15.77;;;8.82;;
25153;SDS011;47555;51.038;6.280;2023-07-20T05:36:58;18.27;;;8.13;;
25153;SDS011;47555;51.038;6.280;2023-07-20T05:39:24;14.90;;;9.70;;
25153;SDS011;47555;51.038;6.280;2023-07-20T05:41:50;24.23;;;8.85;;
25153;SDS011;47555;51.038;6.280;2023-07-20T05:44:16;14.52;;;8.85;;
25153;SDS011;47555;51.038;6.280;2023-07-20T05:46:42;17.00;;;9.57;;
25153;SDS011;47555;51.038;6.280;2023-07-20T05:49:08;13.75;;;9.50;;
25153;SDS011;47555;51.038;6.280;2023-07-20T05:51:34;17.73;;;10.25;;
25153;SDS011;47555;51.038;6.280;2023-07-20T05:54:00;13.05;;;8.35;;
25153;SDS011;47555;51.038;6.280;2023-07-20T05:56:26;17.52;;;9.73;;
25153;SDS011;47555;51.038;6.280;2023-07-20T05:58:52;16.88;;;9.02;;
25153;SDS011;47555;51.038;6.280;2023-07-20T06:01:18;14.75;;;8.82;;
25153;SDS011;47555;51.038;6.280;2023-07-20T06:03:44;14.13;;;8.85;;
25153;SDS011;47555;51.038;6.280;2023-07-20T06:06:10;17.27;;;10.52;;
25153;SDS011;47555;51.038;6.280;2023-07-20T06:08:37;18.10;;;10.20;;
25153;SDS011;47555;51.038;6.280;2023-07-20T06:11:03;15.77;;;10.35;;
25153;SDS011;47555;51.038;6.280;2023-07-20T06:13:29;15.98;;;9.80;;
25153;SDS011;47555;51.038;6.280;2023-07-20T06:15:56;18.63;;;9.32;;
25153;SDS011;47555;51.038;6.280;2023-07-20T06:18:22;16.08;;;10.38;;
25153;SDS011;47555;51.038;6.280;2023-07-20T06:20:50;17.50;;;10.07;;
25153;SDS011;47555;51.038;6.280;2023-07-20T06:23:18;15.82;;;9.77;;
25153;SDS011;47555;51.038;6.280;2023-07-20T06:25:44;17.98;;;10.98;;
25153;SDS011;47555;51.038;6.280;2023-07-20T06:28:10;16.35;;;10.43;;
25153;SDS011;47555;51.038;6.280;2023-07-20T06:30:36;13.65;;;9.32;;
25153;SDS011;47555;51.038;6.280;2023-07-20T06:33:02;17.33;;;10.82;;
25153;SDS011;47555;51.038;6.280;2023-07-20T06:35:28;18.63;;;10.10;;
25153;SDS011;47555;51.038;6.280;2023-07-20T06:37:54;16.30;;;9.60;;
25153;SDS011;47555;51.038;6.280;2023-07-20T06:40:20;18.92;;;10.45;;
25153;SDS011;47555;51.038;6.280;2023-07-20T06:42:46;15.13;;;9.32;;
25153;SDS011;47555;51.038;6.280;2023-07-20T06:45:12;14.98;;;9.95;;
25153;SDS011;47555;51.038;6.280;2023-07-20T06:47:38;13.85;;;9.30;;
25153;SDS011;47555;51.038;6.280;2023-07-20T06:50:08;15.32;;;9.60;;
25153;SDS011;47555;51.038;6.280;2023-07-20T06:52:37;12.60;;;8.13;;
25153;SDS011;47555;51.038;6.280;2023-07-20T06:55:04;14.15;;;9.70;;
25153;SDS011;47555;51.038;6.280;2023-07-20T06:57:31;15.57;;;9.88;;
25153;SDS011;47555;51.038;6.280;2023-07-20T06:59:57;17.13;;;10.40;;
25153;SDS011;47555;51.038;6.280;2023-07-20T07:02:23;16.95;;;10.98;;
25153;SDS011;47555;51.038;6.280;2023-07-20T07:04:49;15.23;;;10.07;;
25153;SDS011;47555;51.038;6.280;2023-07-20T07:07:15;19.15;;;9.73;;
25153;SDS011;47555;51.038;6.280;2023-07-20T07:09:41;13.40;;;9.07;;
25153;SDS011;47555;51.038;6.280;2023-07-20T07:12:08;15.45;;;9.85;;
25153;SDS011;47555;51.038;6.280;2023-07-20T07:14:34;13.57;;;9.65;;
25153;SDS011;47555;51.038;6.280;2023-07-20T07:17:00;14.15;;;9.20;;
25153;SDS011;47555;51.038;6.280;2023-07-20T07:19:26;11.70;;;7.93;;
25153;SDS011;47555;51.038;6.280;2023-07-20T07:21:52;11.60;;;8.60;;
25153;SDS011;47555;51.038;6.280;2023-07-20T07:24:18;13.63;;;8.95;;
25153;SDS011;47555;51.038;6.280;2023-07-20T07:26:44;14.80;;;7.82;;
25153;SDS011;47555;51.038;6.280;2023-07-20T07:29:10;10.27;;;7.72;;
25153;SDS011;47555;51.038;6.280;2023-07-20T07:31:36;12.85;;;8.43;;
25153;SDS011;47555;51.038;6.280;2023-07-20T07:34:06;13.93;;;8.10;;
25153;SDS011;47555;51.038;6.280;2023-07-20T07:36:32;8.00;;;6.55;;
25153;SDS011;47555;51.038;6.280;2023-07-20T07:38:58;10.45;;;6.50;;
25153;SDS011;47555;51.038;6.280;2023-07-20T07:41:24;8.13;;;5.40;;
25153;SDS011;47555;51.038;6.280;2023-07-20T07:43:50;8.82;;;5.80;;
25153;SDS011;47555;51.038;6.280;2023-07-20T07:46:16;10.27;;;7.25;;
25153;SDS011;47555;51.038;6.280;2023-07-20T07:48:42;13.52;;;8.25;;
25153;SDS011;47555;51.038;6.280;2023-07-20T07:51:08;11.75;;;7.82;;
25153;SDS011;47555;51.038;6.280;2023-07-20T07:53:34;11.25;;;7.18;;
25153;SDS011;47555;51.038;6.280;2023-07-20T07:56:01;10.20;;;5.90;;
25153;SDS011;47555;51.038;6.280;2023-07-20T07:58:28;7.57;;;4.90;;
25153;SDS011;47555;51.038;6.280;2023-07-20T08:00:54;6.78;;;5.07;;
25153;SDS011;47555;51.038;6.280;2023-07-20T08:03:20;5.47;;;4.18;;
25153;SDS011;47555;51.038;6.280;2023-07-20T08:05:48;6.00;;;3.90;;
25153;SDS011;47555;51.038;6.280;2023-07-20T08:08:14;5.32;;;4.00;;
25153;SDS011;47555;51.038;6.280;2023-07-20T08:10:40;6.22;;;4.15;;
25153;SDS011;47555;51.038;6.280;2023-07-20T08:13:06;3.55;;;3.20;;
25153;SDS011;47555;51.038;6.280;2023-07-20T08:15:32;4.25;;;3.35;;
25153;SDS011;47555;51.038;6.280;2023-07-20T08:17:58;5.43;;;3.25;;
25153;SDS011;47555;51.038;6.280;2023-07-20T08:20:24;4.43;;;3.30;;
25153;SDS011;47555;51.038;6.280;2023-07-20T08:22:54;3.40;;;3.10;;
25153;SDS011;47555;51.038;6.280;2023-07-20T08:25:21;5.53;;;4.35;;
25153;SDS011;47555;51.038;6.280;2023-07-20T08:27:47;5.32;;;3.47;;
25153;SDS011;47555;51.038;6.280;2023-07-20T08:30:13;3.42;;;2.70;;
25153;SDS011;47555;51.038;6.280;2023-07-20T08:32:39;4.85;;;3.50;;
25153;SDS011;47555;51.038;6.280;2023-07-20T08:35:05;5.50;;;3.40;;
25153;SDS011;47555;51.038;6.280;2023-07-20T08:37:31;5.15;;;3.92;;
25153;SDS011;47555;51.038;6.280;2023-07-20T08:39:57;3.55;;;2.88;;
25153;SDS011;47555;51.038;6.280;2023-07-20T08:42:23;5.65;;;3.15;;
25153;SDS011;47555;51.038;6.280;2023-07-20T08:44:49;4.72;;;3.33;;
25153;SDS011;47555;51.038;6.280;2023-07-20T08:47:17;3.55;;;3.20;;
25153;SDS011;47555;51.038;6.280;2023-07-20T08:49:44;4.35;;;3.08;;
25153;SDS011;47555;51.038;6.280;2023-07-20T08:52:11;3.28;;;2.47;;
25153;SDS011;47555;51.038;6.280;2023-07-20T08:54:37;3.03;;;2.42;;
25153;SDS011;47555;51.038;6.280;2023-07-20T08:57:04;3.28;;;2.38;;
25153;SDS011;47555;51.038;6.280;2023-07-20T08:59:31;3.70;;;2.45;;
25153;SDS011;47555;51.038;6.280;2023-07-20T09:01:58;5.40;;;2.20;;
25153;SDS011;47555;51.038;6.280;2023-07-20T09:04:24;2.08;;;1.77;;
25153;SDS011;47555;51.038;6.280;2023-07-20T09:06:50;2.28;;;1.70;;
25153;SDS011;47555;51.038;6.280;2023-07-20T09:09:16;2.38;;;1.70;;
25153;SDS011;47555;51.038;6.280;2023-07-20T09:11:43;1.98;;;1.60;;
25153;SDS011;47555;51.038;6.280;2023-07-20T09:14:09;1.95;;;1.50;;
25153;SDS011;47555;51.038;6.280;2023-07-20T09:16:48;1.70;;;1.60;;
25153;SDS011;47555;51.038;6.280;2023-07-20T09:19:15;1.38;;;1.27;;
25153;SDS011;47555;51.038;6.280;2023-07-20T09:21:43;2.80;;;1.65;;
25153;SDS011;47555;51.038;6.280;2023-07-20T09:24:10;2.30;;;1.45;;
25153;SDS011;47555;51.038;6.280;2023-07-20T09:26:40;2.13;;;1.60;;
25153;SDS011;47555;51.038;6.280;2023-07-20T09:29:07;1.85;;;1.45;;
25153;SDS011;47555;51.038;6.280;2023-07-20T09:31:34;2.28;;;2.03;;
25153;SDS011;47555;51.038;6.280;2023-07-20T09:34:00;2.83;;;1.83;;
25153;SDS011;47555;51.038;6.280;2023-07-20T09:36:26;2.40;;;1.85;;
25153;SDS011;47555;51.038;6.280;2023-07-20T09:38:52;1.88;;;1.67;;
25153;SDS011;47555;51.038;6.280;2023-07-20T09:41:19;1.60;;;1.33;;
25153;SDS011;47555;51.038;6.280;2023-07-20T09:43:45;1.70;;;1.27;;
25153;SDS011;47555;51.038;6.280;2023-07-20T09:46:11;1.95;;;1.40;;
25153;SDS011;47555;51.038;6.280;2023-07-20T09:48:37;1.55;;;1.30;;
25153;SDS011;47555;51.038;6.280;2023-07-20T09:51:03;2.40;;;1.70;;
25153;SDS011;47555;51.038;6.280;2023-07-20T09:53:31;2.78;;;1.70;;
25153;SDS011;47555;51.038;6.280;2023-07-20T09:55:57;1.50;;;1.40;;
25153;SDS011;47555;51.038;6.280;2023-07-20T09:58:25;2.05;;;1.10;;
25153;SDS011;47555;51.038;6.280;2023-07-20T10:00:52;2.05;;;1.30;;
25153;SDS011;47555;51.038;6.280;2023-07-20T10:03:22;1.42;;;1.10;;
25153;SDS011;47555;51.038;6.280;2023-07-20T10:05:52;1.45;;;0.98;;
25153;SDS011;47555;51.038;6.280;2023-07-20T10:08:19;1.92;;;1.23;;
25153;SDS011;47555;51.038;6.280;2023-07-20T10:10:46;1.30;;;1.20;;
25153;SDS011;47555;51.038;6.280;2023-07-20T10:13:17;1.63;;;1.30;;
25153;SDS011;47555;51.038;6.280;2023-07-20T10:15:46;1.58;;;1.20;;
25153;SDS011;47555;51.038;6.280;2023-07-20T10:18:22;2.28;;;1.30;;
25153;SDS011;47555;51.038;6.280;2023-07-20T10:20:51;1.42;;;1.30;;
25153;SDS011;47555;51.038;6.280;2023-07-20T10:23:19;1.65;;;1.30;;
25153;SDS011;47555;51.038;6.280;2023-07-20T10:25:46;2.17;;;1.30;;
25153;SDS011;47555;51.038;6.280;2023-07-20T10:28:12;1.45;;;1.30;;
25153;SDS011;47555;51.038;6.280;2023-07-20T10:30:39;1.38;;;1.27;;
25153;SDS011;47555;51.038;6.280;2023-07-20T10:33:05;1.90;;;1.58;;
25153;SDS011;47555;51.038;6.280;2023-07-20T10:35:50;1.65;;;1.40;;
25153;SDS011;47555;51.038;6.280;2023-07-20T10:38:16;1.38;;;1.25;;
25153;SDS011;47555;51.038;6.280;2023-07-20T10:40:42;2.55;;;1.30;;
25153;SDS011;47555;51.038;6.280;2023-07-20T10:43:08;2.00;;;1.58;;
25153;SDS011;47555;51.038;6.280;2023-07-20T10:45:53;1.60;;;1.50;;
25153;SDS011;47555;51.038;6.280;2023-07-20T10:48:23;2.40;;;1.70;;
25153;SDS011;47555;51.038;6.280;2023-07-20T10:53:35;2.15;;;1.40;;
25153;SDS011;47555;51.038;6.280;2023-07-20T10:56:14;2.40;;;1.55;;
25153;SDS011;47555;51.038;6.280;2023-07-20T10:58:41;1.90;;;1.48;;
25153;SDS011;47555;51.038;6.280;2023-07-20T11:01:07;2.85;;;1.70;;
25153;SDS011;47555;51.038;6.280;2023-07-20T11:03:38;1.98;;;1.70;;
25153;SDS011;47555;51.038;6.280;2023-07-20T11:08:50;1.40;;;1.30;;
25153;SDS011;47555;51.038;6.280;2023-07-20T11:11:29;1.60;;;1.50;;
25153;SDS011;47555;51.038;6.280;2023-07-20T11:14:03;1.40;;;1.30;;
25153;SDS011;47555;51.038;6.280;2023-07-20T11:16:39;1.63;;;1.20;;
25153;SDS011;47555;51.038;6.280;2023-07-20T11:19:06;1.38;;;1.10;;
25153;SDS011;47555;51.038;6.280;2023-07-20T11:21:36;2.60;;;1.25;;
25153;SDS011;47555;51.038;6.280;2023-07-20T11:24:03;1.67;;;1.53;;
25153;SDS011;47555;51.038;6.280;2023-07-20T11:26:29;1.45;;;1.35;;
25153;SDS011;47555;51.038;6.280;2023-07-20T11:28:55;1.88;;;1.70;;
25153;SDS011;47555;51.038;6.280;2023-07-20T11:31:21;1.40;;;1.30;;
25153;SDS011;47555;51.038;6.280;2023-07-20T11:33:47;1.83;;;1.27;;
25153;SDS011;47555;51.038;6.280;2023-07-20T11:36:13;1.40;;;1.30;;
25153;SDS011;47555;51.038;6.280;2023-07-20T11:38:40;1.90;;;1.30;;
25153;SDS011;47555;51.038;6.280;2023-07-20T11:41:08;1.63;;;1.52;;
25153;SDS011;47555;51.038;6.280;2023-07-20T11:43:34;3.45;;;1.48;;
25153;SDS011;47555;51.038;6.280;2023-07-20T11:46:03;2.35;;;1.48;;
25153;SDS011;47555;51.038;6.280;2023-07-20T11:48:30;2.55;;;1.30;;
25153;SDS011;47555;51.038;6.280;2023-07-20T11:50:56;1.30;;;1.20;;
25153;SDS011;47555;51.038;6.280;2023-07-20T11:53:22;1.80;;;1.40;;
25153;SDS011;47555;51.038;6.280;2023-07-20T11:55:50;2.47;;;1.58;;
25153;SDS011;47555;51.038;6.280;2023-07-20T11:58:16;2.50;;;1.55;;
25153;SDS011;47555;51.038;6.280;2023-07-20T12:00:43;2.42;;;1.35;;
25153;SDS011;47555;51.038;6.280;2023-07-20T12:03:11;2.30;;;1.60;;
25153;SDS011;47555;51.038;6.280;2023-07-20T12:05:40;1.45;;;1.20;;
25153;SDS011;47555;51.038;6.280;2023-07-20T12:08:07;1.30;;;1.17;;
25153;SDS011;47555;51.038;6.280;2023-07-20T12:10:33;1.65;;;1.38;;
25153;SDS011;47555;51.038;6.280;2023-07-20T12:13:03;1.30;;;1.20;;
25153;SDS011;47555;51.038;6.280;2023-07-20T12:15:29;1.40;;;1.30;;
25153;SDS011;47555;51.038;6.280;2023-07-20T12:17:57;1.30;;;1.20;;
25153;SDS011;47555;51.038;6.280;2023-07-20T12:20:27;1.70;;;1.33;;
25153;SDS011;47555;51.038;6.280;2023-07-20T12:22:55;1.45;;;1.30;;
25153;SDS011;47555;51.038;6.280;2023-07-20T12:25:21;2.72;;;1.50;;
25153;SDS011;47555;51.038;6.280;2023-07-20T12:27:47;1.63;;;1.25;;
25153;SDS011;47555;51.038;6.280;2023-07-20T12:30:13;1.45;;;1.30;;
25153;SDS011;47555;51.038;6.280;2023-07-20T12:32:40;3.47;;;1.77;;
25153;SDS011;47555;51.038;6.280;2023-07-20T12:35:06;1.63;;;1.52;;
25153;SDS011;47555;51.038;6.280;2023-07-20T12:37:32;1.25;;;1.25;;
25153;SDS011;47555;51.038;6.280;2023-07-20T12:39:58;1.65;;;1.55;;
25153;SDS011;47555;51.038;6.280;2023-07-20T12:42:24;1.67;;;1.50;;
25153;SDS011;47555;51.038;6.280;2023-07-20T12:44:50;1.85;;;1.45;;
25153;SDS011;47555;51.038;6.280;2023-07-20T12:47:16;1.95;;;1.50;;
25153;SDS011;47555;51.038;6.280;2023-07-20T12:49:42;1.67;;;1.55;;
25153;SDS011;47555;51.038;6.280;2023-07-20T12:52:11;2.85;;;1.88;;
25153;SDS011;47555;51.038;6.280;2023-07-20T12:54:38;2.38;;;1.90;;
25153;SDS011;47555;51.038;6.280;2023-07-20T12:57:04;1.77;;;1.67;;
25153;SDS011;47555;51.038;6.280;2023-07-20T12:59:30;3.38;;;1.98;;
25153;SDS011;47555;51.038;6.280;2023-07-20T13:01:56;3.28;;;2.22;;
25153;SDS011;47555;51.038;6.280;2023-07-20T13:04:22;2.38;;;2.03;;
25153;SDS011;47555;51.038;6.280;2023-07-20T13:06:47;1.88;;;1.77;;
25153;SDS011;47555;51.038;6.280;2023-07-20T13:09:13;1.98;;;1.88;;
25153;SDS011;47555;51.038;6.280;2023-07-20T13:11:39;2.10;;;1.90;;
25153;SDS011;47555;51.038;6.280;2023-07-20T13:14:05;2.53;;;1.85;;
25153;SDS011;47555;51.038;6.280;2023-07-20T13:16:31;3.15;;;2.20;;
25153;SDS011;47555;51.038;6.280;2023-07-20T13:18:59;1.92;;;1.83;;
25153;SDS011;47555;51.038;6.280;2023-07-20T13:21:25;2.95;;;1.95;;
25153;SDS011;47555;51.038;6.280;2023-07-20T13:23:50;4.25;;;2.30;;
25153;SDS011;47555;51.038;6.280;2023-07-20T13:26:16;2.65;;;2.45;;
25153;SDS011;47555;51.038;6.280;2023-07-20T13:28:42;2.53;;;2.20;;
25153;SDS011;47555;51.038;6.280;2023-07-20T13:31:08;2.17;;;2.08;;
25153;SDS011;47555;51.038;6.280;2023-07-20T13:33:35;2.50;;;2.20;;
25153;SDS011;47555;51.038;6.280;2023-07-20T13:36:02;2.75;;;2.10;;
25153;SDS011;47555;51.038;6.280;2023-07-20T13:38:30;2.40;;;2.20;;
25153;SDS011;47555;51.038;6.280;2023-07-20T13:40:56;2.55;;;2.10;;
25153;SDS011;47555;51.038;6.280;2023-07-20T13:43:22;1.88;;;1.70;;
25153;SDS011;47555;51.038;6.280;2023-07-20T13:45:48;1.80;;;1.70;;
25153;SDS011;47555;51.038;6.280;2023-07-20T13:48:14;1.83;;;1.70;;
25153;SDS011;47555;51.038;6.280;2023-07-20T13:50:42;2.65;;;1.88;;
25153;SDS011;47555;51.038;6.280;2023-07-20T13:53:08;2.67;;;2.10;;
25153;SDS011;47555;51.038;6.280;2023-07-20T13:55:34;2.22;;;2.00;;
25153;SDS011;47555;51.038;6.280;2023-07-20T13:58:02;1.80;;;1.70;;
25153;SDS011;47555;51.038;6.280;2023-07-20T14:00:30;2.05;;;1.90;;
25153;SDS011;47555;51.038;6.280;2023-07-20T14:02:58;2.78;;;2.40;;
25153;SDS011;47555;51.038;6.280;2023-07-20T14:05:24;2.55;;;2.33;;
25153;SDS011;47555;51.038;6.280;2023-07-20T14:07:50;3.22;;;2.28;;
25153;SDS011;47555;51.038;6.280;2023-07-20T14:10:16;2.58;;;2.38;;
25153;SDS011;47555;51.038;6.280;2023-07-20T14:12:43;2.15;;;1.95;;
25153;SDS011;47555;51.038;6.280;2023-07-20T14:15:10;2.33;;;1.95;;
25153;SDS011;47555;51.038;6.280;2023-07-20T14:17:36;3.35;;;2.08;;
25153;SDS011;47555;51.038;6.280;2023-07-20T14:20:02;2.45;;;1.98;;
25153;SDS011;47555;51.038;6.280;2023-07-20T14:22:31;2.05;;;1.85;;
25153;SDS011;47555;51.038;6.280;2023-07-20T14:24:59;2.33;;;2.10;;
25153;SDS011;47555;51.038;6.280;2023-07-20T14:27:25;2.50;;;1.90;;
25153;SDS011;47555;51.038;6.280;2023-07-20T14:29:51;2.03;;;1.75;;
25153;SDS011;47555;51.038;6.280;2023-07-20T14:32:18;2.28;;;1.75;;
25153;SDS011;47555;51.038;6.280;2023-07-20T14:34:44;2.20;;;1.80;;
25153;SDS011;47555;51.038;6.280;2023-07-20T14:37:10;1.80;;;1.70;;
25153;SDS011;47555;51.038;6.280;2023-07-20T14:39:37;2.08;;;1.95;;
25153;SDS011;47555;51.038;6.280;2023-07-20T14:42:06;1.70;;;1.60;;
25153;SDS011;47555;51.038;6.280;2023-07-20T14:44:33;2.17;;;1.90;;
25153;SDS011;47555;51.038;6.280;2023-07-20T14:46:59;1.70;;;1.60;;
25153;SDS011;47555;51.038;6.280;2023-07-20T14:49:28;1.80;;;1.70;;
25153;SDS011;47555;51.038;6.280;2023-07-20T14:51:54;3.03;;;1.73;;